Observations for QUIMPER PLUGUFF, France (LFRQ)

LFRQ 171900Z AUTO 28007KT 250V310 CAVOK 18/11 Q1019 NOSIG   
LFRQ 171830Z AUTO 27007KT CAVOK 19/10 Q1019 NOSIG   
LFRQ 171800Z AUTO 28008KT 250V310 CAVOK 20/10 Q1019 NOSIG   
LFRQ 171730Z AUTO 27008KT CAVOK 20/09 Q1019 NOSIG   
LFRQ 171700Z AUTO 26008KT 230V310 CAVOK 21/10 Q1019 NOSIG   
LFRQ 171630Z AUTO 25008KT CAVOK 21/10 Q1019 NOSIG   
LFRQ 171600Z AUTO 27008KT 9999 SCT043 21/11 Q1019 NOSIG 
LFRQ 171530Z AUTO 27006KT 180V330 CAVOK 21/11 Q1019 NOSIG   
LFRQ 171500Z AUTO 25007KT 220V310 9999 FEW045 SCT060 22/11 Q1019 NOSIG  
LFRQ 171430Z AUTO 25008KT 180V270 9999 FEW047 SCT060 22/11 Q1019 NOSIG  
LFRQ 171400Z AUTO 26008KT 210V290 CAVOK 22/10 Q1019 NOSIG   
LFRQ 171330Z AUTO 23007KT 190V280 CAVOK 22/10 Q1019 NOSIG   
LFRQ 171300Z AUTO 27007KT 220V320 CAVOK 21/09 Q1019 NOSIG   
LFRQ 171230Z AUTO 25008KT 200V280 9999 FEW048 BKN056 22/10 Q1020 NOSIG  
LFRQ 171200Z AUTO 27009KT 230V310 CAVOK 21/10 Q1020 NOSIG   
LFRQ 171130Z AUTO 26008KT 220V300 9999 FEW049 22/10 Q1020 NOSIG 
LFRQ 171100Z AUTO 26009KT 9999 FEW043 BKN064 21/10 Q1020 TEMPO SHRA 
LFRQ 171030Z AUTO 27011KT 240V310 9999 BKN037 BKN047 BKN060 21/10 Q1020 TEMPO SHRA  
LFRQ 171000Z AUTO 27010KT 9999 SCT031 BKN038 BKN045 20/12 Q1020 TEMPO SHRA  
LFRQ 170930Z AUTO 26010KT 9999 FEW030 OVC062 20/13 Q1020 TEMPO SHRA 
LFRQ 170900Z AUTO 28008KT 250V310 CAVOK 19/14 Q1020 TEMPO SHRA  
LFRQ 170830Z AUTO 27008KT 9999 SCT021 OVC058 18/14 Q1020 TEMPO SHRA 
LFRQ 170800Z AUTO 28006KT 250V310 9999 SCT017 SCT023 OVC056 18/14 Q1019 TEMPO SHRA  
LFRQ 170730Z AUTO 28006KT 250V320 CAVOK 18/15 Q1019 TEMPO SHRA  
LFRQ 170700Z AUTO 27006KT CAVOK 18/15 Q1019 TEMPO SHRA  
LFRQ 170630Z AUTO 28004KT 250V310 CAVOK 17/15 Q1019 TEMPO SHRA  
LFRQ 170600Z AUTO 28004KT CAVOK 16/15 Q1019 TEMPO SHRA  
LFRQ 170530Z AUTO 29004KT CAVOK 15/14 Q1019 TEMPO SHRA  
LFRQ 170500Z AUTO 28003KT CAVOK 13/12 Q1019 
LFRQ 170430Z AUTO 27003KT CAVOK 13/12 Q1019 
LFRQ 170400Z AUTO 29005KT CAVOK 14/12 Q1019 
LFRQ 170330Z AUTO 28005KT CAVOK 15/13 Q1019 
LFRQ 170300Z AUTO 28004KT 9999 FEW038 OVC054 16/13 Q1019
LFRQ 170230Z AUTO 29005KT 9999 BKN037 BKN044 OVC052 15/13 Q1019 
LFRQ 170200Z AUTO 29005KT CAVOK 15/14 Q1019 
LFRQ 170130Z AUTO 30005KT CAVOK 14/12 Q1019 
LFRQ 170100Z AUTO 29005KT CAVOK 14/12 Q1019 
LFRQ 170030Z AUTO 30006KT CAVOK 14/12 Q1019 
LFRQ 170000Z AUTO 29005KT CAVOK 14/13 Q1019 
LFRQ 162330Z AUTO 29005KT CAVOK 14/13 Q1019 
LFRQ 162300Z AUTO 29004KT CAVOK 15/13 Q1019 
LFRQ 162230Z AUTO 30004KT CAVOK 14/13 Q1019 
LFRQ 162200Z AUTO 28004KT CAVOK 14/13 Q1019 
LFRQ 162130Z AUTO 30004KT 9999 FEW047 SCT054 14/12 Q1019 NOSIG  
LFRQ 162100Z AUTO 29005KT CAVOK 15/13 Q1019 NOSIG   
LFRQ 162030Z AUTO 30006KT 9999 FEW035 BKN047 16/13 Q1018 NOSIG  
LFRQ 162000Z AUTO 32008KT 9999 OVC028 17/13 Q1018 NOSIG 
LFRQ 161930Z AUTO 32009KT 9999 OVC029 17/13 Q1018 NOSIG 
LFRQ 161900Z AUTO 32010KT 9999 OVC026 18/13 Q1018 NOSIG 
LFRQ 161830Z AUTO 31010KT 9999 FEW011 OVC027 17/14 Q1017 NOSIG